Time;durP1;ratioP1;P1;durP2;ratioP2;P2;SDS_P1;SDS_P2;PMS_P1;PMS_P2;Temp;Humidity;BMP_temperature;BMP_pressure;BME280_temperature;BME280_humidity;BME280_pressure;Samples;Min_cycle;Max_cycle;Signal;HPM_P1;HPM_P2
2023/12/20 00:01:49;;;;;;;;;;;;;;;1.75;76.87;99239.34;4464919;32;33252;-94
2023/12/20 00:04:17;;;;;;;;;;;;;;;1.58;77.06;99240.19;4494660;31;32700;-92
2023/12/20 00:06:44;;;;;;;;;;;;;;;1.83;76.54;99235.47;4472504;31;34052;-90
2023/12/20 00:09:11;;;;;;;;;;;;;;;2.10;75.18;99235.03;4467943;31;34519;-93
2023/12/20 00:11:42;;;;;;;;;;;;;;;2.02;75.26;99232.13;4483254;31;33396;-93
2023/12/20 00:14:09;;;;;;;;;;;;;;;2.11;75.00;99232.53;4483446;31;33635;-91
2023/12/20 00:16:36;;;;;;;;;;;;;;;1.87;75.69;99224.59;4482518;31;34626;-92
2023/12/20 00:19:04;;;;;;;;;;;;;;;2.18;74.71;99223.50;4486411;31;34349;-88
2023/12/20 00:21:34;;;;;;;;;;;;;;;2.25;74.39;99225.53;4484425;31;34180;-88
2023/12/20 00:24:01;;;;;;;;;;;;;;;2.22;74.42;99216.84;4490166;31;33591;-90
2023/12/20 00:26:29;;;;;;;;;;;;;;;1.77;75.51;99217.28;4484030;31;34933;-90
2023/12/20 00:28:56;;;;;;;;;;;;;;;1.21;77.71;99202.59;4486498;31;34379;-89
2023/12/20 00:31:23;;;;;;;;;;;;;;;1.04;77.80;99203.44;4489978;31;34004;-89
2023/12/20 00:33:51;;;;;;;;;;;;;;;1.73;77.05;99202.59;4485195;31;33642;-88
2023/12/20 00:36:19;;;;;;;;;;;;;;;1.62;76.52;99198.66;4484702;31;33487;-88
2023/12/20 00:38:46;;;;;;;;;;;;;;;1.67;76.98;99194.66;4470875;31;35023;-89
2023/12/20 00:41:14;;;;;;;;;;;;;;;1.43;76.57;99192.66;4490406;31;34066;-88
2023/12/20 00:43:41;;;;;;;;;;;;;;;1.37;77.70;99194.03;4479591;31;32646;-89
2023/12/20 00:46:09;;;;;;;;;;;;;;;1.32;78.02;99185.25;4490591;31;34196;-88
2023/12/20 00:48:37;;;;;;;;;;;;;;;1.34;77.34;99182.00;4484360;31;34261;-87
2023/12/20 00:51:04;;;;;;;;;;;;;;;1.73;76.64;99178.72;4486311;31;33983;-88
2023/12/20 00:53:31;;;;;;;;;;;;;;;1.45;77.92;99178.28;4486952;31;33737;-88
2023/12/20 00:55:59;;;;;;;;;;;;;;;1.23;78.14;99174.59;4486474;31;33925;-89
2023/12/20 00:58:27;;;;;;;;;;;;;;;1.53;78.25;99165.88;4489353;31;34195;-88
2023/12/20 01:00:55;;;;;;;;;;;;;;;1.19;78.57;99161.69;4476721;31;34218;-88
2023/12/20 01:03:23;;;;;;;;;;;;;;;1.12;78.75;99162.16;4471830;31;32797;-88
2023/12/20 01:05:50;;;;;;;;;;;;;;;1.59;78.39;99155.97;4470099;31;34895;-88
2023/12/20 01:08:18;;;;;;;;;;;;;;;1.92;76.39;99149.00;4490330;31;32345;-88
2023/12/20 01:10:46;;;;;;;;;;;;;;;1.30;78.15;99146.87;4465972;31;35058;-88
2023/12/20 01:13:14;;;;;;;;;;;;;;;1.30;78.43;99136.66;4477117;31;32572;-87
2023/12/20 01:15:41;;;;;;;;;;;;;;;1.43;78.23;99139.00;4465566;31;33150;-87
2023/12/20 01:18:09;;;;;;;;;;;;;;;1.14;79.42;99134.19;4488480;31;34170;-88
2023/12/20 01:20:37;;;;;;;;;;;;;;;1.16;78.82;99128.31;4486014;31;34286;-88
2023/12/20 01:23:04;;;;;;;;;;;;;;;1.35;78.33;99119.00;4489102;31;33501;-88
2023/12/20 01:25:32;;;;;;;;;;;;;;;0.89;79.42;99117.63;4486903;31;32846;-88
2023/12/20 01:27:59;;;;;;;;;;;;;;;0.94;80.31;99116.16;4476733;31;33983;-88
2023/12/20 01:30:27;;;;;;;;;;;;;;;1.17;78.37;99116.44;4479333;31;33170;-88
2023/12/20 01:32:55;;;;;;;;;;;;;;;1.35;78.22;99111.34;4492926;31;33356;-89
2023/12/20 01:35:22;;;;;;;;;;;;;;;0.61;80.01;99109.41;4491497;31;33119;-88
2023/12/20 01:37:49;;;;;;;;;;;;;;;0.85;80.16;99107.19;4489826;31;34848;-87
2023/12/20 01:40:17;;;;;;;;;;;;;;;0.73;79.96;99104.91;4482318;31;35057;-87
2023/12/20 01:42:44;;;;;;;;;;;;;;;1.11;79.08;99106.81;4478431;31;32120;-88
2023/12/20 01:45:12;;;;;;;;;;;;;;;1.14;78.95;99106.09;4483756;31;33801;-89
2023/12/20 01:47:39;;;;;;;;;;;;;;;1.45;77.80;99103.34;4487232;31;34443;-88
2023/12/20 01:50:08;;;;;;;;;;;;;;;1.05;78.72;99097.97;4491247;31;34504;-89
2023/12/20 01:52:35;;;;;;;;;;;;;;;1.19;78.07;99089.31;4492894;31;34387;-89
2023/12/20 01:55:06;;;;;;;;;;;;;;;0.90;78.75;99087.88;4472549;31;34075;-89
2023/12/20 01:57:33;;;;;;;;;;;;;;;0.83;79.59;99081.59;4488648;31;34331;-88
2023/12/20 02:00:00;;;;;;;;;;;;;;;1.00;79.68;99071.34;4509862;31;34008;-88
2023/12/20 02:02:28;;;;;;;;;;;;;;;1.42;77.73;99060.62;4499650;31;33797;-89
2023/12/20 02:04:56;;;;;;;;;;;;;;;0.88;79.34;99059.75;4513847;31;33552;-89
2023/12/20 02:07:23;;;;;;;;;;;;;;;1.10;78.68;99058.19;4479189;31;32743;-90
2023/12/20 02:09:51;;;;;;;;;;;;;;;0.63;80.26;99060.19;4493219;31;35045;-89
2023/12/20 02:12:18;;;;;;;;;;;;;;;0.79;79.85;99051.59;4494515;31;33239;-89
2023/12/20 02:14:46;;;;;;;;;;;;;;;1.04;78.95;99052.81;4511035;31;34824;-89
2023/12/20 02:17:13;;;;;;;;;;;;;;;1.23;78.06;99052.03;4496160;31;33824;-90
2023/12/20 02:19:40;;;;;;;;;;;;;;;0.63;79.03;99046.56;4494565;31;34525;-89
2023/12/20 02:22:09;;;;;;;;;;;;;;;1.13;78.14;99046.47;4505036;31;33617;-89
2023/12/20 02:24:36;;;;;;;;;;;;;;;0.65;79.87;99037.31;4497378;31;33781;-89
2023/12/20 02:27:05;;;;;;;;;;;;;;;0.37;80.74;99038.47;4487175;31;33851;-89
2023/12/20 02:29:33;;;;;;;;;;;;;;;0.91;79.57;99028.34;4485487;31;33346;-88
2023/12/20 02:32:01;;;;;;;;;;;;;;;1.31;77.83;99026.03;4493758;31;33538;-89
2023/12/20 02:34:28;;;;;;;;;;;;;;;1.44;77.07;99025.81;4505568;31;33706;-89
2023/12/20 02:36:56;;;;;;;;;;;;;;;1.42;76.56;99032.53;4500778;31;34202;-89
2023/12/20 02:39:23;;;;;;;;;;;;;;;1.27;77.49;99024.16;4494126;31;33397;-88
2023/12/20 02:41:50;;;;;;;;;;;;;;;1.70;75.97;99027.03;4494610;31;32389;-88
2023/12/20 02:44:18;;;;;;;;;;;;;;;1.65;76.00;99009.72;4506950;31;33720;-89
2023/12/20 02:46:45;;;;;;;;;;;;;;;1.77;75.55;99015.38;4509973;31;33816;-88
2023/12/20 02:49:12;;;;;;;;;;;;;;;2.08;74.39;99001.38;4486950;31;34064;-89
2023/12/20 02:51:40;;;;;;;;;;;;;;;1.86;74.41;98997.91;4484876;31;33328;-89
2023/12/20 02:54:07;;;;;;;;;;;;;;;2.18;74.10;98990.75;4505665;31;34913;-89
2023/12/20 02:56:34;;;;;;;;;;;;;;;1.70;74.50;98990.34;4503164;31;34943;-89
2023/12/20 02:59:05;;;;;;;;;;;;;;;1.66;74.79;98983.34;4499450;31;34457;-88
2023/12/20 03:01:32;;;;;;;;;;;;;;;1.00;77.14;98984.56;4490367;31;33569;-88
2023/12/20 03:03:59;;;;;;;;;;;;;;;0.89;77.55;98974.69;4510377;31;34198;-88
2023/12/20 03:06:27;;;;;;;;;;;;;;;1.46;75.34;98975.66;4498216;31;33506;-89
2023/12/20 03:08:54;;;;;;;;;;;;;;;1.97;73.96;98989.81;4510290;31;34979;-88
2023/12/20 03:11:22;;;;;;;;;;;;;;;1.90;73.61;98988.69;4487011;31;32438;-89
2023/12/20 03:13:49;;;;;;;;;;;;;;;1.81;73.83;98991.69;4490921;31;34470;-89
2023/12/20 03:16:16;;;;;;;;;;;;;;;1.87;73.36;98986.87;4512731;31;34013;-88
2023/12/20 03:18:43;;;;;;;;;;;;;;;1.56;74.79;98986.31;4502303;31;33766;-89
2023/12/20 03:21:11;;;;;;;;;;;;;;;1.09;75.97;98987.53;4491727;31;34179;-89
2023/12/20 03:23:38;;;;;;;;;;;;;;;1.52;74.40;98986.97;4498337;31;33745;-89
2023/12/20 03:26:08;;;;;;;;;;;;;;;1.80;74.29;98986.53;4503748;31;34552;-89
2023/12/20 03:28:36;;;;;;;;;;;;;;;2.21;73.37;98978.09;4511823;31;34374;-89
2023/12/20 03:31:03;;;;;;;;;;;;;;;2.18;73.53;98971.16;4492543;31;33561;-89
2023/12/20 03:33:31;;;;;;;;;;;;;;;1.94;73.53;98980.34;4513432;31;34871;-89
2023/12/20 03:35:58;;;;;;;;;;;;;;;1.66;73.97;98983.34;4511452;31;35169;-88
2023/12/20 03:38:25;;;;;;;;;;;;;;;1.57;73.84;98990.59;4502520;31;34105;-89
2023/12/20 03:40:52;;;;;;;;;;;;;;;1.92;72.72;98997.28;4500863;31;33052;-89
2023/12/20 03:43:20;;;;;;;;;;;;;;;2.07;72.42;98991.97;4500465;31;34987;-89
2023/12/20 03:45:47;;;;;;;;;;;;;;;1.73;73.47;98985.38;4513892;31;34385;-89
2023/12/20 03:48:15;;;;;;;;;;;;;;;2.08;72.94;98991.16;4511049;31;33407;-88
2023/12/20 03:50:42;;;;;;;;;;;;;;;1.69;73.42;98980.94;4511877;31;33100;-89
2023/12/20 03:53:10;;;;;;;;;;;;;;;1.60;73.78;98981.41;4510613;31;34401;-89
2023/12/20 03:55:37;;;;;;;;;;;;;;;1.78;73.97;98973.69;4496369;31;34262;-89
2023/12/20 03:58:05;;;;;;;;;;;;;;;1.74;73.07;98976.88;4501292;31;34215;-89
2023/12/20 04:00:33;;;;;;;;;;;;;;;1.29;75.78;98976.59;4503281;31;33032;-89
2023/12/20 04:03:01;;;;;;;;;;;;;;;1.77;74.13;98965.94;4486468;31;32530;-89
2023/12/20 04:05:28;;;;;;;;;;;;;;;1.31;75.64;98964.75;4498532;31;33960;-89
2023/12/20 04:07:55;;;;;;;;;;;;;;;0.96;76.54;98958.88;4478128;31;34030;-88
2023/12/20 04:10:23;;;;;;;;;;;;;;;1.42;75.10;98960.12;4512023;31;33427;-89
2023/12/20 04:12:50;;;;;;;;;;;;;;;1.62;74.52;98955.91;4497943;31;33667;-89
2023/12/20 04:15:18;;;;;;;;;;;;;;;1.54;74.57;98953.00;4510387;31;34255;-88
2023/12/20 04:17:45;;;;;;;;;;;;;;;1.64;74.19;98959.41;4498273;31;35122;-88
2023/12/20 04:20:13;;;;;;;;;;;;;;;1.55;74.09;98959.00;4492882;31;34004;-89
2023/12/20 04:22:40;;;;;;;;;;;;;;;1.56;74.05;98945.44;4489637;31;34482;-89
2023/12/20 04:25:08;;;;;;;;;;;;;;;0.92;75.80;98949.34;4505448;31;34099;-89
2023/12/20 04:27:35;;;;;;;;;;;;;;;1.06;76.31;98956.75;4499206;31;35126;-89
2023/12/20 04:30:02;;;;;;;;;;;;;;;0.90;77.26;98953.47;4507342;31;32982;-89
2023/12/20 04:32:31;;;;;;;;;;;;;;;0.98;76.28;98946.19;4501670;31;34919;-89
2023/12/20 04:34:59;;;;;;;;;;;;;;;1.36;75.78;98945.38;4504450;31;34267;-89
2023/12/20 04:37:26;;;;;;;;;;;;;;;1.30;75.41;98941.69;4505710;31;33858;-89
2023/12/20 04:39:54;;;;;;;;;;;;;;;0.95;77.70;98934.16;4507018;31;34244;-88
2023/12/20 04:42:22;;;;;;;;;;;;;;;1.37;75.89;98929.28;4485419;31;33693;-88
2023/12/20 04:44:49;;;;;;;;;;;;;;;1.17;76.29;98933.47;4493734;31;34795;-88
2023/12/20 04:47:16;;;;;;;;;;;;;;;1.72;75.04;98932.53;4509006;31;34430;-89
2023/12/20 04:49:43;;;;;;;;;;;;;;;1.56;74.36;98932.66;4510555;31;33489;-89
2023/12/20 04:52:11;;;;;;;;;;;;;;;1.33;75.31;98917.19;4507860;31;34041;-88
2023/12/20 04:54:38;;;;;;;;;;;;;;;1.16;75.93;98907.88;4507993;31;34931;-89
2023/12/20 04:57:09;;;;;;;;;;;;;;;0.88;76.58;98905.75;4507109;31;34716;-89
2023/12/20 04:59:36;;;;;;;;;;;;;;;0.66;76.68;98898.75;4505155;31;33268;-88
2023/12/20 05:02:03;;;;;;;;;;;;;;;0.71;77.41;98897.28;4509168;31;34062;-88
2023/12/20 05:04:31;;;;;;;;;;;;;;;0.36;79.33;98888.81;4506151;31;34469;-89
2023/12/20 05:06:58;;;;;;;;;;;;;;;0.59;77.63;98881.41;4489436;31;34796;-88
2023/12/20 05:09:26;;;;;;;;;;;;;;;0.64;77.90;98885.91;4504559;31;34203;-89
2023/12/20 05:11:56;;;;;;;;;;;;;;;1.10;75.91;98894.81;4501902;31;34532;-87
2023/12/20 05:14:24;;;;;;;;;;;;;;;0.92;75.76;98870.22;4497661;31;33960;-88
2023/12/20 05:16:52;;;;;;;;;;;;;;;1.03;76.14;98869.84;4496990;31;34229;-89
2023/12/20 05:19:19;;;;;;;;;;;;;;;0.84;76.34;98863.03;4500073;31;33496;-88
2023/12/20 05:21:46;;;;;;;;;;;;;;;0.97;76.40;98871.28;4503086;31;34960;-89
2023/12/20 05:24:14;;;;;;;;;;;;;;;1.62;73.94;98874.16;4506734;31;34263;-89
2023/12/20 05:26:41;;;;;;;;;;;;;;;1.73;73.47;98888.25;4503761;31;35233;-89
2023/12/20 05:29:09;;;;;;;;;;;;;;;1.58;73.72;98897.81;4505857;31;33532;-89
2023/12/20 05:31:36;;;;;;;;;;;;;;;1.76;73.07;98898.63;4512770;31;34917;-89
2023/12/20 05:34:03;;;;;;;;;;;;;;;1.04;74.82;98904.75;4492985;31;33415;-89
2023/12/20 05:36:31;;;;;;;;;;;;;;;0.80;76.24;98915.59;4510255;31;34151;-90
2023/12/20 05:38:59;;;;;;;;;;;;;;;1.25;74.92;98927.81;4488419;31;33661;-88
2023/12/20 05:41:26;;;;;;;;;;;;;;;0.92;75.89;98921.25;4507419;31;34644;-88
2023/12/20 05:43:53;;;;;;;;;;;;;;;1.25;74.72;98912.50;4506868;31;33824;-88
2023/12/20 05:46:21;;;;;;;;;;;;;;;1.58;73.95;98895.25;4505390;31;34152;-89
2023/12/20 05:48:49;;;;;;;;;;;;;;;1.74;72.96;98884.00;4490505;31;34257;-88
2023/12/20 05:51:16;;;;;;;;;;;;;;;1.80;73.04;98872.37;4506823;31;35016;-88
2023/12/20 05:53:44;;;;;;;;;;;;;;;1.79;73.03;98872.31;4480737;32;35108;-89
2023/12/20 05:56:11;;;;;;;;;;;;;;;1.76;72.96;98883.28;4481404;32;35620;-89
2023/12/20 05:58:38;;;;;;;;;;;;;;;1.20;74.01;98877.44;4473573;32;34457;-87
2023/12/20 06:01:08;;;;;;;;;;;;;;;1.32;73.90;98877.09;4473719;32;34815;-88
2023/12/20 06:03:36;;;;;;;;;;;;;;;1.99;71.61;98876.59;4471010;32;34491;-88
2023/12/20 06:06:06;;;;;;;;;;;;;;;1.98;71.44;98873.97;4473597;32;33762;-88
2023/12/20 06:08:43;;;;;;;;;;;;;;;1.50;72.51;98863.41;4480004;32;32781;-88
2023/12/20 06:11:11;;;;;;;;;;;;;;;0.84;75.28;98852.81;4473734;32;34741;-92
2023/12/20 06:13:38;;;;;;;;;;;;;;;1.55;71.96;98846.56;4454452;32;36782;-90
2023/12/20 06:16:06;;;;;;;;;;;;;;;1.68;71.77;98843.75;4469440;32;35063;-90
2023/12/20 06:18:34;;;;;;;;;;;;;;;1.60;71.73;98846.00;4472000;32;34187;-89
2023/12/20 06:21:02;;;;;;;;;;;;;;;1.30;71.64;98850.63;4479085;32;34099;-90
2023/12/20 06:23:29;;;;;;;;;;;;;;;1.57;72.27;98844.97;4482486;32;34237;-91
2023/12/20 06:25:57;;;;;;;;;;;;;;;1.74;71.53;98846.56;4483399;32;34351;-89
2023/12/20 06:28:24;;;;;;;;;;;;;;;1.62;71.22;98844.34;4482389;32;33931;-89
2023/12/20 06:30:54;;;;;;;;;;;;;;;1.70;71.09;98849.78;4480741;32;33867;-88
2023/12/20 06:33:22;;;;;;;;;;;;;;;1.76;71.25;98854.31;4482037;32;33163;-89
2023/12/20 06:35:49;;;;;;;;;;;;;;;1.91;70.72;98860.06;4483341;32;34083;-89
2023/12/20 06:38:17;;;;;;;;;;;;;;;1.67;70.66;98854.78;4482127;32;33644;-89
2023/12/20 06:40:45;;;;;;;;;;;;;;;1.75;70.62;98857.69;4477400;32;33700;-89
2023/12/20 06:43:13;;;;;;;;;;;;;;;1.75;70.81;98871.31;4466437;32;33797;-89
2023/12/20 06:45:58;;;;;;;;;;;;;;;1.03;72.90;98890.25;4467748;32;35169;-89
2023/12/20 06:48:26;;;;;;;;;;;;;;;0.65;74.59;98902.09;4471857;32;34550;-89
2023/12/20 06:50:53;;;;;;;;;;;;;;;1.04;73.41;98903.06;4476384;32;33800;-90
2023/12/20 06:53:21;;;;;;;;;;;;;;;1.02;72.71;98903.81;4483388;31;34015;-89
2023/12/20 06:55:48;;;;;;;;;;;;;;;0.88;73.65;98911.72;4482349;32;34387;-90
2023/12/20 06:58:15;;;;;;;;;;;;;;;0.26;75.20;98901.91;4482159;32;33188;-90
2023/12/20 07:00:43;;;;;;;;;;;;;;;1.08;72.56;98893.88;4495178;31;34502;-89
2023/12/20 07:03:10;;;;;;;;;;;;;;;0.73;73.89;98890.59;4481713;31;35185;-90
2023/12/20 07:05:38;;;;;;;;;;;;;;;1.45;71.71;98902.38;4498848;31;34288;-89
2023/12/20 07:08:06;;;;;;;;;;;;;;;1.27;71.69;98896.47;4477091;31;33852;-89
2023/12/20 07:10:52;;;;;;;;;;;;;;;1.10;72.65;98899.91;4487373;31;34930;-90
2023/12/20 07:13:20;;;;;;;;;;;;;;;0.60;74.78;98901.00;4498615;31;34467;-90
2023/12/20 07:15:48;;;;;;;;;;;;;;;1.00;74.25;98893.53;4499335;31;33880;-89
2023/12/20 07:18:15;;;;;;;;;;;;;;;0.93;73.91;98891.50;4496751;31;33753;-91
2023/12/20 07:20:43;;;;;;;;;;;;;;;1.27;73.28;98890.47;4480982;32;33307;-90
2023/12/20 07:23:11;;;;;;;;;;;;;;;0.97;74.80;98885.72;4469255;32;34394;-89
2023/12/20 07:25:38;;;;;;;;;;;;;;;0.99;73.66;98893.47;4481964;32;34464;-89
2023/12/20 07:28:06;;;;;;;;;;;;;;;0.85;74.22;98890.28;4481361;32;33349;-89
2023/12/20 07:30:33;;;;;;;;;;;;;;;0.91;73.75;98891.44;4482686;31;34230;-91
2023/12/20 07:33:02;;;;;;;;;;;;;;;0.90;74.61;98888.81;4481865;32;33957;-89
2023/12/20 07:35:30;;;;;;;;;;;;;;;1.03;74.86;98890.25;4482590;31;33539;-90
2023/12/20 07:37:58;;;;;;;;;;;;;;;1.16;74.46;98887.44;4483075;32;33623;-89
2023/12/20 07:40:25;;;;;;;;;;;;;;;1.36;73.88;98896.00;4496867;31;34879;-89
2023/12/20 07:42:52;;;;;;;;;;;;;;;1.19;74.26;98900.34;4498938;31;34774;-90
2023/12/20 07:45:20;;;;;;;;;;;;;;;1.38;74.26;98890.16;4497429;31;34447;-90
2023/12/20 07:47:47;;;;;;;;;;;;;;;1.48;74.26;98900.75;4482686;31;32453;-90
2023/12/20 07:50:15;;;;;;;;;;;;;;;1.29;73.77;98893.97;4496780;31;33951;-90
2023/12/20 07:52:42;;;;;;;;;;;;;;;1.20;74.14;98889.31;4489280;31;91672;-89
2023/12/20 07:55:10;;;;;;;;;;;;;;;0.85;75.42;98885.16;4484377;31;33888;-89
2023/12/20 07:57:38;;;;;;;;;;;;;;;1.14;75.27;98884.84;4513304;31;34011;-89
2023/12/20 08:00:06;;;;;;;;;;;;;;;1.41;74.38;98890.28;4487041;31;32901;-91
2023/12/20 08:02:33;;;;;;;;;;;;;;;1.06;74.19;98885.25;4483766;31;33751;-90
2023/12/20 08:05:01;;;;;;;;;;;;;;;1.49;72.76;98879.53;4499035;31;34402;-90
2023/12/20 08:07:28;;;;;;;;;;;;;;;0.87;75.11;98874.25;4500427;31;33564;-91
2023/12/20 08:09:57;;;;;;;;;;;;;;;1.14;74.06;98869.50;4499773;31;34077;-89
2023/12/20 08:12:27;;;;;;;;;;;;;;;0.92;75.32;98872.75;4514446;31;34857;-90
2023/12/20 08:14:55;;;;;;;;;;;;;;;1.15;74.71;98876.34;4487074;31;33733;-90
2023/12/20 08:17:23;;;;;;;;;;;;;;;0.81;75.56;98879.06;4470044;31;32524;-90
2023/12/20 08:19:50;;;;;;;;;;;;;;;1.03;75.11;98870.72;4498604;31;34564;-91
2023/12/20 08:22:18;;;;;;;;;;;;;;;1.68;73.44;98871.88;4475568;31;34836;-90
2023/12/20 08:24:45;;;;;;;;;;;;;;;1.74;73.73;98874.66;4498559;31;34034;-90
2023/12/20 08:27:13;;;;;;;;;;;;;;;1.84;73.47;98876.81;4494527;31;33928;-90
2023/12/20 08:29:43;;;;;;;;;;;;;;;2.09;73.18;98881.28;4514427;31;33818;-89
2023/12/20 08:32:11;;;;;;;;;;;;;;;2.44;72.11;98872.47;4499771;31;35142;-91
2023/12/20 08:34:39;;;;;;;;;;;;;;;2.42;71.74;98874.13;4482555;31;35056;-87
2023/12/20 08:37:06;;;;;;;;;;;;;;;2.43;72.14;98874.97;4489551;31;33744;-90
2023/12/20 08:39:34;;;;;;;;;;;;;;;1.46;74.62;98883.69;4484128;31;34030;-89
2023/12/20 08:42:01;;;;;;;;;;;;;;;2.20;72.93;98879.19;4506701;31;33691;-90
2023/12/20 08:44:29;;;;;;;;;;;;;;;2.49;72.32;98876.91;4510930;31;33968;-88
2023/12/20 08:46:57;;;;;;;;;;;;;;;2.71;71.87;98870.94;4497911;31;34221;-90
2023/12/20 08:49:25;;;;;;;;;;;;;;;2.66;71.75;98876.75;4504687;31;33715;-90
2023/12/20 08:51:52;;;;;;;;;;;;;;;2.79;71.33;98883.22;4501619;31;34260;-88
2023/12/20 08:54:20;;;;;;;;;;;;;;;3.00;70.89;98884.88;4505576;31;33817;-88
2023/12/20 08:56:47;;;;;;;;;;;;;;;3.03;71.00;98885.88;4498727;31;33535;-88
2023/12/20 08:59:14;;;;;;;;;;;;;;;3.23;69.93;98876.38;4506219;31;33795;-87
2023/12/20 09:01:42;;;;;;;;;;;;;;;3.25;69.69;98881.53;4500379;31;35208;-89
2023/12/20 09:04:09;;;;;;;;;;;;;;;3.22;70.06;98878.84;4511409;31;34330;-90
2023/12/20 09:06:36;;;;;;;;;;;;;;;3.10;70.27;98892.06;4502249;31;34367;-91
2023/12/20 09:09:04;;;;;;;;;;;;;;;3.14;70.13;98889.72;4506549;31;34175;-91
2023/12/20 09:11:31;;;;;;;;;;;;;;;2.93;70.17;98886.31;4500611;31;33999;-90
2023/12/20 09:13:59;;;;;;;;;;;;;;;3.00;70.79;98884.88;4504849;31;35060;-88
2023/12/20 09:16:26;;;;;;;;;;;;;;;3.31;70.01;98877.50;4501607;31;33644;-88
2023/12/20 09:18:54;;;;;;;;;;;;;;;2.71;70.94;98876.94;4507071;31;34093;-89
2023/12/20 09:21:21;;;;;;;;;;;;;;;3.27;70.03;98872.22;4499698;31;34086;-92
2023/12/20 09:23:49;;;;;;;;;;;;;;;3.44;69.51;98875.38;4498244;31;34351;-94
2023/12/20 09:26:17;;;;;;;;;;;;;;;3.52;69.44;98873.97;4479453;31;33456;-90
2023/12/20 09:28:48;;;;;;;;;;;;;;;3.61;69.14;98857.25;4481876;31;34626;-92
2023/12/20 09:31:16;;;;;;;;;;;;;;;3.48;69.81;98857.59;4486285;31;34356;-93
2023/12/20 09:33:47;;;;;;;;;;;;;;;3.61;69.88;98858.94;4501509;31;33352;-93
2023/12/20 09:36:15;;;;;;;;;;;;;;;3.66;70.06;98847.12;4516708;31;33722;-95
2023/12/20 09:38:43;;;;;;;;;;;;;;;3.56;70.60;98850.19;4503068;31;34534;-95
2023/12/20 09:41:31;;;;;;;;;;;;;;;3.71;70.55;98843.03;4503172;31;33164;-96
2023/12/20 09:43:59;;;;;;;;;;;;;;;3.53;71.62;98838.16;4501200;31;33666;-94
2023/12/20 09:46:27;;;;;;;;;;;;;;;3.60;71.84;98834.13;4474680;31;33023;-96
2023/12/20 09:48:55;;;;;;;;;;;;;;;3.37;72.67;98836.75;4475559;31;34295;-96
2023/12/20 09:51:22;;;;;;;;;;;;;;;3.80;71.66;98827.97;4475159;31;33383;-94
2023/12/20 09:54:10;;;;;;;;;;;;;;;4.03;71.22;98820.19;4477627;31;34176;-90
2023/12/20 09:56:43;;;;;;;;;;;;;;;3.74;71.58;98829.47;4500016;31;34217;-92
2023/12/20 09:59:21;;;;;;;;;;;;;;;3.79;72.19;98830.47;4473638;31;34461;-91
2023/12/20 10:01:49;;;;;;;;;;;;;;;3.94;71.68;98825.00;4508084;31;35147;-92
2023/12/20 10:04:18;;;;;;;;;;;;;;;3.54;73.36;98824.53;4491609;31;34490;-96
2023/12/20 10:06:56;;;;;;;;;;;;;;;3.84;72.49;98831.53;4505728;31;33636;-93
2023/12/20 10:09:44;;;;;;;;;;;;;;;3.86;72.75;98815.38;4501196;31;34721;-94
2023/12/20 10:12:11;;;;;;;;;;;;;;;3.54;73.92;98819.41;4520202;31;35761;-95
2023/12/20 10:14:59;;;;;;;;;;;;;;;3.66;73.75;98806.13;4502236;31;34057;-96
2023/12/20 10:17:29;;;;;;;;;;;;;;;3.54;73.82;98815.97;4466876;31;32974;-90
2023/12/20 10:19:56;;;;;;;;;;;;;;;3.72;73.22;98798.66;4494305;31;32601;-91
2023/12/20 10:22:24;;;;;;;;;;;;;;;3.95;72.37;98801.12;4468902;31;33258;-92
2023/12/20 10:24:52;;;;;;;;;;;;;;;3.65;73.26;98801.81;4485859;31;34037;-92
2023/12/20 10:27:20;;;;;;;;;;;;;;;3.81;73.08;98798.94;4494970;31;33241;-91
2023/12/20 10:29:48;;;;;;;;;;;;;;;3.83;72.64;98796.47;4499682;31;34050;-93
2023/12/20 10:32:22;;;;;;;;;;;;;;;3.87;72.66;98786.34;4497103;31;34292;-91
2023/12/20 10:34:54;;;;;;;;;;;;;;;4.05;71.56;98778.38;4467458;31;33340;-91
2023/12/20 10:37:21;;;;;;;;;;;;;;;4.43;70.75;98777.81;4472432;31;33607;-92
2023/12/20 10:39:56;;;;;;;;;;;;;;;4.24;71.29;98778.94;4481715;31;32949;-92
2023/12/20 10:42:27;;;;;;;;;;;;;;;4.51;70.76;98778.94;4485054;31;33043;-94
2023/12/20 10:44:54;;;;;;;;;;;;;;;4.31;71.71;98781.75;4497813;31;34477;-92
2023/12/20 10:47:21;;;;;;;;;;;;;;;4.47;72.02;98792.50;4485257;31;33570;-91
2023/12/20 10:49:49;;;;;;;;;;;;;;;4.50;72.00;98782.31;4498121;31;33908;-92
2023/12/20 10:52:16;;;;;;;;;;;;;;;4.57;72.46;98776.56;4499495;31;35240;-93
2023/12/20 10:55:04;;;;;;;;;;;;;;;4.14;74.37;98767.53;4487680;31;34519;-90
2023/12/20 10:57:32;;;;;;;;;;;;;;;4.00;74.50;98763.66;4485063;31;33568;-92
2023/12/20 11:00:01;;;;;;;;;;;;;;;4.24;73.92;98779.81;4499432;31;33907;-90
2023/12/20 11:02:29;;;;;;;;;;;;;;;4.11;74.98;98772.56;4499793;31;34299;-89
2023/12/20 11:04:59;;;;;;;;;;;;;;;4.74;72.67;98766.81;4485188;31;34302;-93
2023/12/20 11:07:33;;;;;;;;;;;;;;;4.53;73.08;98772.16;4472965;31;32254;-95
2023/12/20 11:10:14;;;;;;;;;;;;;;;4.51;72.48;98753.25;4501404;31;34493;-90
2023/12/20 11:12:45;;;;;;;;;;;;;;;4.27;73.22;98748.25;4501169;31;33576;-90
2023/12/20 11:15:14;;;;;;;;;;;;;;;4.78;72.24;98746.38;4501483;31;33903;-91
2023/12/20 11:17:41;;;;;;;;;;;;;;;4.99;71.62;98740.97;4488072;31;33937;-90
2023/12/20 11:20:36;;;;;;;;;;;;;;;4.79;73.11;98734.41;4489716;31;32958;-92
2023/12/20 11:23:03;;;;;;;;;;;;;;;4.94;72.30;98718.56;4501469;31;34308;-89
2023/12/20 11:25:34;;;;;;;;;;;;;;;5.07;71.35;98700.06;4500012;31;34358;-89
2023/12/20 11:28:09;;;;;;;;;;;;;;;5.12;72.11;98711.38;4501291;31;34249;-94
2023/12/20 11:30:55;;;;;;;;;;;;;;;5.14;72.55;98696.84;4490274;31;33027;-93
2023/12/20 11:33:23;;;;;;;;;;;;;;;5.22;72.24;98689.34;4502640;31;34609;-96
2023/12/20 11:36:15;;;;;;;;;;;;;;;5.41;71.31;98686.41;4490820;31;34613;-90
2023/12/20 11:38:51;;;;;;;;;;;;;;;5.44;70.50;98683.91;4511609;31;34224;-91
2023/12/20 11:41:22;;;;;;;;;;;;;;;5.58;70.10;98695.44;4484965;31;33595;-91
2023/12/20 11:43:49;;;;;;;;;;;;;;;5.23;71.27;98693.66;4479305;31;34942;-90
2023/12/20 11:46:37;;;;;;;;;;;;;;;5.34;71.39;98682.84;4484788;31;33650;-94
2023/12/20 11:49:04;;;;;;;;;;;;;;;5.22;72.28;98679.91;4484342;31;34419;-94
2023/12/20 11:51:32;;;;;;;;;;;;;;;5.41;72.05;98680.41;4486776;31;32639;-92
2023/12/20 11:53:59;;;;;;;;;;;;;;;5.63;71.46;98680.09;4498561;31;33535;-93
2023/12/20 11:56:27;;;;;;;;;;;;;;;5.18;74.51;98678.09;4514599;31;34227;-94
2023/12/20 11:58:55;;;;;;;;;;;;;;;5.25;74.08;98672.28;4487644;31;34928;-89
2023/12/20 12:01:36;;;;;;;;;;;;;;;5.28;74.17;98667.25;4491400;31;33263;-95
2023/12/20 12:04:04;;;;;;;;;;;;;;;5.34;74.80;98671.66;4491751;31;34907;-94
2023/12/20 12:06:31;;;;;;;;;;;;;;;5.72;73.98;98667.50;4488630;31;34484;-93
2023/12/20 12:08:59;;;;;;;;;;;;;;;5.65;74.43;98655.31;4511544;31;34294;-90
2023/12/20 12:11:27;;;;;;;;;;;;;;;5.57;74.81;98659.41;4490556;31;33896;-94
2023/12/20 12:13:54;;;;;;;;;;;;;;;6.17;72.94;98646.22;4493084;31;35126;-91
2023/12/20 12:16:21;;;;;;;;;;;;;;;5.84;75.01;98647.19;4485573;31;34047;-94
2023/12/20 12:19:05;;;;;;;;;;;;;;;6.11;74.61;98651.25;4505523;31;34066;-94
2023/12/20 12:21:33;;;;;;;;;;;;;;;6.27;74.09;98643.00;4498435;31;32876;-93
2023/12/20 12:24:09;;;;;;;;;;;;;;;6.05;75.46;98635.66;4477522;31;33521;-91
2023/12/20 12:26:49;;;;;;;;;;;;;;;5.93;75.48;98640.53;4486668;31;33127;-90
2023/12/20 12:29:17;;;;;;;;;;;;;;;6.16;75.03;98649.63;4473543;31;33240;-89
2023/12/20 12:31:44;;;;;;;;;;;;;;;6.35;73.58;98648.31;4488903;31;34012;-91
2023/12/20 12:34:13;;;;;;;;;;;;;;;5.94;75.09;98642.28;4485053;31;34069;-91
2023/12/20 12:36:41;;;;;;;;;;;;;;;6.19;74.32;98649.72;4498706;31;34764;-91
2023/12/20 12:39:08;;;;;;;;;;;;;;;6.17;73.79;98635.06;4503513;31;33818;-88
2023/12/20 12:41:35;;;;;;;;;;;;;;;6.18;73.06;98642.84;4494158;31;33733;-92
2023/12/20 12:44:03;;;;;;;;;;;;;;;6.00;73.84;98643.28;4491220;31;34283;-89
2023/12/20 12:46:45;;;;;;;;;;;;;;;6.05;73.64;98643.38;4483521;31;33340;-89
2023/12/20 12:49:13;;;;;;;;;;;;;;;5.95;73.91;98638.88;4492854;31;33476;-93
2023/12/20 12:51:40;;;;;;;;;;;;;;;5.71;74.64;98639.13;4506607;31;34926;-94
2023/12/20 12:54:28;;;;;;;;;;;;;;;5.62;74.79;98644.94;4487270;31;33779;-95
2023/12/20 12:56:55;;;;;;;;;;;;;;;5.99;73.11;98635.56;4484583;31;35099;-91
2023/12/20 12:59:24;;;;;;;;;;;;;;;5.95;72.62;98638.88;4489784;31;34029;-95
2023/12/20 13:01:53;;;;;;;;;;;;;;;5.64;73.97;98621.81;4498499;31;34907;-90
2023/12/20 13:04:20;;;;;;;;;;;;;;;5.22;75.80;98633.66;4505077;31;34361;-92
2023/12/20 13:06:48;;;;;;;;;;;;;;;5.53;73.76;98629.28;4523053;31;33874;-90